Time;durP1;ratioP1;P1;durP2;ratioP2;P2;SDS_P1;SDS_P2;PMS_P1;PMS_P2;Temp;Humidity;BMP_temperature;BMP_pressure;BME280_temperature;BME280_humidity;BME280_pressure;Samples;Min_cycle;Max_cycle;Signal;HPM_P1;HPM_P2
2021/11/09 00:00:33;;;;;;;8.47;3.60;;;;;;;8.68;93.54;101601.16;5082970;28;20258;-76
2021/11/09 00:03:01;;;;;;;9.83;3.60;;;;;;;8.69;93.03;101597.72;5083315;28;20300;-77
2021/11/09 00:05:29;;;;;;;8.60;3.50;;;;;;;8.67;93.14;101613.31;5083049;28;20231;-77
2021/11/09 00:07:59;;;;;;;13.57;3.97;;;;;;;8.69;92.83;101605.53;5083699;28;20214;-77
2021/11/09 00:10:28;;;;;;;7.17;3.23;;;;;;;8.66;93.17;101605.50;5083075;28;20203;-76
2021/11/09 00:12:58;;;;;;;9.43;3.30;;;;;;;8.64;93.15;101602.91;5082624;28;20253;-77
2021/11/09 00:15:25;;;;;;;6.93;3.50;;;;;;;8.61;93.29;101595.06;5083025;28;20239;-76
2021/11/09 00:17:54;;;;;;;5.77;3.13;;;;;;;8.66;92.88;101611.59;5083355;28;20289;-77
2021/11/09 00:20:24;;;;;;;8.87;3.30;;;;;;;8.57;93.25;101608.03;5083098;28;20211;-77
2021/11/09 00:22:51;;;;;;;5.00;2.77;;;;;;;8.62;92.93;101602.03;5083148;28;20284;-77
2021/11/09 00:25:20;;;;;;;6.50;4.10;;;;;;;8.65;93.29;101599.41;5081903;28;20308;-77
2021/11/09 00:27:47;;;;;;;8.03;2.87;;;;;;;8.67;93.22;101610.72;5083036;28;20249;-76
2021/11/09 00:30:16;;;;;;;7.83;3.10;;;;;;;8.66;92.79;101611.59;5082193;28;20815;-77
2021/11/09 00:32:44;;;;;;;4.93;3.00;;;;;;;8.69;92.99;101611.59;5082993;28;20273;-77
2021/11/09 00:35:11;;;;;;;5.33;2.30;;;;;;;8.68;93.06;101611.56;5082950;28;20214;-76
2021/11/09 00:37:38;;;;;;;9.60;4.00;;;;;;;8.65;92.43;101620.25;5082654;28;20731;-76
2021/11/09 00:40:06;;;;;;;6.27;3.10;;;;;;;8.69;92.92;101615.94;5082174;28;20253;-76
2021/11/09 00:42:34;;;;;;;6.80;3.00;;;;;;;8.69;93.02;101619.41;5081786;28;20226;-77
2021/11/09 00:45:00;;;;;;;7.07;2.90;;;;;;;8.65;93.21;101609.84;5082797;28;20237;-77
2021/11/09 00:47:26;;;;;;;5.23;2.37;;;;;;;8.66;93.25;101609.00;5083390;28;20286;-76
2021/11/09 00:49:53;;;;;;;7.07;2.70;;;;;;;8.54;93.11;101609.75;5081872;28;20215;-77
2021/11/09 00:52:20;;;;;;;8.30;2.60;;;;;;;8.62;93.25;101608.94;5082587;28;20658;-76
2021/11/09 00:54:47;;;;;;;3.93;1.97;;;;;;;8.55;93.86;101595.00;5082417;28;20214;-76
2021/11/09 00:57:13;;;;;;;7.30;2.60;;;;;;;8.59;93.59;101590.72;5081948;28;20597;-76
2021/11/09 00:59:41;;;;;;;5.50;2.60;;;;;;;8.60;93.70;101602.84;5081958;28;20685;-77
2021/11/09 01:02:07;;;;;;;4.80;2.30;;;;;;;8.58;93.86;101599.34;5082803;28;20666;-76
2021/11/09 01:04:34;;;;;;;8.40;3.17;;;;;;;8.61;93.32;101600.25;5082912;28;20213;-78
2021/11/09 01:07:01;;;;;;;5.43;2.57;;;;;;;8.56;93.37;101612.34;5082535;28;20227;-77
2021/11/09 01:09:27;;;;;;;8.10;2.87;;;;;;;8.62;93.19;101615.03;5082571;28;20233;-77
2021/11/09 01:11:55;;;;;;;4.50;2.33;;;;;;;8.63;92.67;101621.09;5081853;28;20671;-76
2021/11/09 01:14:23;;;;;;;11.43;2.67;;;;;;;8.62;92.78;101614.13;5082136;28;20203;-77
2021/11/09 01:16:51;;;;;;;5.73;3.07;;;;;;;8.60;93.02;101616.72;5082412;28;20208;-77
2021/11/09 01:19:19;;;;;;;4.87;2.57;;;;;;;8.64;92.70;101618.50;5082356;28;20315;-76
2021/11/09 01:21:46;;;;;;;7.83;2.70;;;;;;;8.58;92.73;101617.56;5082078;28;20226;-76
2021/11/09 01:24:14;;;;;;;6.53;2.63;;;;;;;8.58;93.11;101614.97;5083210;28;20483;-76
2021/11/09 01:26:42;;;;;;;6.00;3.07;;;;;;;8.65;93.12;101616.78;5081677;28;21043;-76
2021/11/09 01:29:11;;;;;;;6.37;3.10;;;;;;;8.63;92.97;101621.09;5081466;28;20242;-76
2021/11/09 01:31:38;;;;;;;3.77;2.60;;;;;;;8.67;92.98;101634.13;5082261;28;20200;-76
2021/11/09 01:34:07;;;;;;;3.87;2.63;;;;;;;8.73;92.57;101651.53;5081930;28;20260;-77
2021/11/09 01:36:33;;;;;;;5.20;3.03;;;;;;;8.75;91.84;101657.63;5085983;28;20211;-76
2021/11/09 01:39:00;;;;;;;7.47;3.30;;;;;;;8.49;92.90;101639.19;5086382;28;20621;-76
2021/11/09 01:41:27;;;;;;;5.60;2.77;;;;;;;8.44;93.59;101613.13;5086138;28;20263;-77
2021/11/09 01:43:55;;;;;;;6.70;3.53;;;;;;;8.54;93.44;101609.75;5085802;28;20785;-77
2021/11/09 01:46:22;;;;;;;4.80;2.60;;;;;;;8.57;93.63;101603.69;5085711;28;20222;-76
2021/11/09 01:48:49;;;;;;;5.40;3.13;;;;;;;8.58;94.09;101597.63;5085044;28;20264;-77
2021/11/09 01:51:19;;;;;;;4.40;2.37;;;;;;;8.63;93.81;101600.28;5086214;28;20302;-77
2021/11/09 01:53:47;;;;;;;4.80;2.60;;;;;;;8.64;93.50;101595.09;5085560;28;20219;-77
2021/11/09 01:56:16;;;;;;;6.13;2.10;;;;;;;8.62;93.92;101599.41;5085756;28;20674;-77
2021/11/09 01:58:43;;;;;;;2.63;2.07;;;;;;;8.60;93.60;101597.63;5086203;28;20226;-76
2021/11/09 02:01:13;;;;;;;3.43;1.60;;;;;;;8.62;93.77;101599.41;5085818;28;20250;-76
2021/11/09 02:03:42;;;;;;;4.97;1.97;;;;;;;8.58;93.90;101594.16;5085664;28;20296;-76
2021/11/09 02:06:09;;;;;;;5.20;2.03;;;;;;;8.57;93.62;101595.88;5086122;28;20269;-76
2021/11/09 02:08:37;;;;;;;6.27;2.43;;;;;;;8.51;94.06;101598.44;5085473;28;20276;-77
2021/11/09 02:11:03;;;;;;;5.30;2.23;;;;;;;8.52;93.70;101582.84;5085812;28;20210;-77
2021/11/09 02:13:30;;;;;;;3.73;2.27;;;;;;;8.58;93.90;101586.34;5085566;28;20263;-77
2021/11/09 02:15:57;;;;;;;4.93;1.97;;;;;;;8.60;93.81;101588.09;5084788;28;20231;-76
2021/11/09 02:18:25;;;;;;;4.47;1.80;;;;;;;8.53;93.86;101592.38;5084871;28;20594;-76
2021/11/09 02:20:56;;;;;;;4.67;2.43;;;;;;;8.50;94.27;101594.97;5085789;28;20253;-76
2021/11/09 02:23:23;;;;;;;2.60;1.83;;;;;;;8.48;94.67;101575.88;5085081;28;20677;-77
2021/11/09 02:25:49;;;;;;;4.83;1.97;;;;;;;8.46;94.65;101575.00;5085294;28;20276;-76
2021/11/09 02:28:16;;;;;;;8.50;1.60;;;;;;;8.49;94.94;101568.94;5084766;28;20253;-77
2021/11/09 02:30:43;;;;;;;3.77;2.10;;;;;;;8.51;94.72;101570.69;5085147;28;20204;-77
2021/11/09 02:33:09;;;;;;;4.10;1.67;;;;;;;8.54;94.53;101567.22;5085448;28;20227;-76
2021/11/09 02:35:36;;;;;;;4.50;2.10;;;;;;;8.50;94.23;101578.47;5085139;28;20202;-77
2021/11/09 02:38:05;;;;;;;5.77;2.37;;;;;;;8.46;94.36;101572.41;5084653;28;20208;-77
2021/11/09 02:40:34;;;;;;;4.57;2.60;;;;;;;8.48;94.27;101573.28;5085261;28;20255;-77
2021/11/09 02:43:06;;;;;;;4.73;2.40;;;;;;;8.47;94.21;101578.47;5084984;28;20249;-76
2021/11/09 02:45:39;;;;;;;7.63;2.40;;;;;;;8.46;94.73;101576.72;5084746;28;20207;-76
2021/11/09 02:48:11;;;;;;;4.03;2.27;;;;;;;8.49;94.25;101579.34;5083635;28;20231;-76
2021/11/09 02:50:40;;;;;;;4.40;2.63;;;;;;;8.52;94.70;101587.16;5085020;28;20207;-76
2021/11/09 02:53:11;;;;;;;4.40;2.70;;;;;;;8.55;94.08;101590.66;5084857;28;20318;-76
2021/11/09 02:55:40;;;;;;;6.07;3.07;;;;;;;8.55;94.32;101590.66;5084905;28;20607;-77
2021/11/09 02:58:17;;;;;;;5.63;2.80;;;;;;;8.55;94.08;101592.41;5084560;28;20219;-74
2021/11/09 03:00:55;;;;;;;4.87;3.37;;;;;;;8.55;93.60;101606.28;5084870;28;20298;-76
2021/11/09 03:03:30;;;;;;;8.67;3.80;;;;;;;8.55;94.24;101603.69;5084215;28;20601;-77
2021/11/09 03:06:06;;;;;;;8.40;3.20;;;;;;;8.51;94.03;101601.91;5084246;28;20210;-77
2021/11/09 03:08:37;;;;;;;5.00;3.30;;;;;;;8.54;94.36;101606.25;5084243;28;20200;-76
2021/11/09 03:11:04;;;;;;;7.53;3.50;;;;;;;8.54;93.94;101594.16;5084975;28;20208;-76
2021/11/09 03:13:31;;;;;;;9.43;3.03;;;;;;;8.49;94.41;101594.97;5084873;28;20227;-77
2021/11/09 03:16:02;;;;;;;5.40;3.27;;;;;;;8.48;94.77;101595.81;5083788;28;20207;-77
2021/11/09 03:18:30;;;;;;;7.63;3.77;;;;;;;8.51;94.38;101590.63;5083818;28;20295;-76
2021/11/09 03:23:05;;;;;;;4.30;3.10;;;;;;;8.51;94.96;101590.63;5084031;28;20200;-76
2021/11/09 03:40:30;;;;;;;9.33;3.37;;;;;;;8.53;94.50;101605.41;5083463;28;20320;-76
2021/11/09 03:45:40;;;;;;;5.60;3.30;;;;;;;8.55;94.66;101608.88;5084238;28;20217;-76
2021/11/09 03:48:11;;;;;;;11.63;3.67;;;;;;;8.54;94.52;101612.34;5083371;28;20328;-74
2021/11/09 03:50:40;;;;;;;9.77;3.93;;;;;;;8.52;94.75;101613.19;5083915;28;20203;-77
2021/11/09 03:53:11;;;;;;;4.97;3.00;;;;;;;8.52;94.99;101603.66;5083429;28;20230;-76
2021/11/09 03:55:58;;;;;;;5.73;3.80;;;;;;;8.52;94.64;101608.88;5083796;28;20223;-77
2021/11/09 03:58:27;;;;;;;4.73;3.50;;;;;;;8.50;94.53;101610.59;5082647;28;20252;-77
2021/11/09 04:00:58;;;;;;;6.70;3.77;;;;;;;8.49;94.54;101605.38;5083702;28;20207;-78
2021/11/09 04:03:36;;;;;;;7.07;3.73;;;;;;;8.51;95.14;101601.03;5083441;28;20216;-76
2021/11/09 04:06:14;;;;;;;6.07;3.33;;;;;;;8.50;95.38;101599.28;5083510;28;20232;-76
2021/11/09 04:08:45;;;;;;;7.03;3.57;;;;;;;8.54;95.26;101606.25;5083458;28;20592;-77
2021/11/09 04:11:17;;;;;;;5.77;3.20;;;;;;;8.53;95.14;101613.19;5083319;28;20208;-76
2021/11/09 04:13:48;;;;;;;5.77;3.60;;;;;;;8.52;94.92;101619.28;5083134;28;20235;-76
2021/11/09 04:19:06;;;;;;;7.10;3.93;;;;;;;8.53;94.73;101623.63;5082468;28;20207;-77
2021/11/09 04:27:11;;;;;;;8.33;5.50;;;;;;;8.52;94.40;101637.50;5083238;28;20241;-77
2021/11/09 04:30:04;;;;;;;9.60;4.80;;;;;;;8.53;94.64;101641.84;5082931;28;20224;-77
2021/11/09 04:35:48;;;;;;;5.57;4.33;;;;;;;8.45;94.98;101634.81;5039453;28;20217;-77
2021/11/09 04:52:12;;;;;;;7.10;5.83;;;;;;;8.53;94.81;101636.63;5080405;28;20215;-77
2021/11/09 05:02:59;;;;;;;11.13;7.77;;;;;;;8.51;94.47;101645.28;5082268;28;20262;-77
2021/11/09 05:08:27;;;;;;;9.37;6.03;;;;;;;8.54;94.46;101661.81;5082022;28;20238;-75
2021/11/09 05:10:56;;;;;;;13.97;9.13;;;;;;;8.60;93.68;101668.78;5081673;28;20208;-76
2021/11/09 05:13:24;;;;;;;8.93;7.53;;;;;;;8.61;93.71;101675.72;5082892;28;20228;-76
2021/11/09 05:15:52;;;;;;;8.87;7.40;;;;;;;8.60;93.75;101671.38;5082073;28;20265;-77
2021/11/09 05:18:19;;;;;;;10.87;6.70;;;;;;;8.59;94.03;101671.38;5081983;28;20199;-76
2021/11/09 05:20:46;;;;;;;14.50;7.87;;;;;;;8.55;94.15;101680.88;5082391;28;20234;-76
2021/11/09 05:23:12;;;;;;;10.77;8.50;;;;;;;8.59;94.36;101672.25;5082925;28;20280;-76
2021/11/09 05:25:38;;;;;;;9.23;6.83;;;;;;;8.59;94.10;101671.38;5082379;28;20211;-77
2021/11/09 05:28:08;;;;;;;9.63;5.80;;;;;;;8.58;93.97;101674.81;5081643;28;20267;-77
2021/11/09 05:30:35;;;;;;;12.73;7.93;;;;;;;8.45;94.91;101668.66;5082428;28;20703;-76
2021/11/09 05:33:03;;;;;;;15.40;10.30;;;;;;;8.50;94.26;101667.84;5082775;28;20236;-76
2021/11/09 05:35:30;;;;;;;8.67;7.77;;;;;;;8.54;94.75;101673.91;5082294;28;20211;-76
2021/11/09 05:37:58;;;;;;;14.73;8.93;;;;;;;8.55;94.41;101676.53;5081993;28;20199;-77
2021/11/09 05:40:30;;;;;;;13.93;10.17;;;;;;;8.54;93.88;101679.13;5081903;28;20238;-77
2021/11/09 05:42:57;;;;;;;13.60;10.67;;;;;;;8.56;94.23;101685.22;5081731;28;20317;-76
2021/11/09 05:45:24;;;;;;;17.17;12.57;;;;;;;8.49;94.07;101686.03;5082414;28;20203;-76
2021/11/09 05:47:50;;;;;;;13.63;10.17;;;;;;;8.54;94.46;101689.53;5082115;28;20235;-76
2021/11/09 05:50:18;;;;;;;16.33;12.30;;;;;;;8.54;94.21;101694.75;5082151;28;20211;-77
2021/11/09 05:52:44;;;;;;;16.17;11.73;;;;;;;8.52;93.88;101697.34;5081576;28;20253;-77
2021/11/09 05:55:11;;;;;;;20.43;13.70;;;;;;;8.57;93.93;101701.72;5082271;28;20268;-77
2021/11/09 05:57:37;;;;;;;22.80;14.27;;;;;;;8.58;94.30;101701.72;5082538;28;20551;-76
2021/11/09 06:00:06;;;;;;;17.47;12.20;;;;;;;8.64;93.79;101714.81;5081387;28;20239;-76
2021/11/09 06:02:33;;;;;;;19.77;14.63;;;;;;;8.69;93.50;101720.94;5081761;28;20251;-76
2021/11/09 06:04:59;;;;;;;30.10;16.53;;;;;;;8.67;93.24;101737.41;5081369;28;20748;-76
2021/11/09 06:07:26;;;;;;;26.07;14.07;;;;;;;8.68;93.63;101736.53;5082714;28;20688;-76
2021/11/09 06:09:53;;;;;;;25.07;15.60;;;;;;;8.69;93.51;101743.50;5081773;28;20288;-76
2021/11/09 06:12:19;;;;;;;25.47;15.33;;;;;;;8.69;93.60;101746.09;5081970;28;20677;-76
2021/11/09 06:14:46;;;;;;;29.83;17.63;;;;;;;8.66;93.16;101762.56;5081938;28;20227;-76
2021/11/09 06:17:12;;;;;;;31.37;18.07;;;;;;;8.68;92.98;101765.16;5082434;28;20200;-77
2021/11/09 06:19:39;;;;;;;29.53;18.17;;;;;;;8.69;92.62;101767.78;5080827;28;20238;-77
2021/11/09 06:22:05;;;;;;;35.90;17.50;;;;;;;8.67;92.33;101782.50;5082752;28;20262;-77
2021/11/09 06:24:33;;;;;;;30.43;18.10;;;;;;;8.69;92.36;101788.59;5085430;28;20224;-76
2021/11/09 06:27:00;;;;;;;18.40;15.17;;;;;;;8.67;92.50;101792.91;5085115;28;20262;-77
2021/11/09 06:29:26;;;;;;;19.37;14.27;;;;;;;8.69;93.38;101764.31;5084865;28;20774;-76
2021/11/09 06:31:53;;;;;;;25.87;17.03;;;;;;;8.67;93.03;101758.22;5084511;28;20616;-77
2021/11/09 06:34:20;;;;;;;24.57;16.87;;;;;;;8.72;92.90;101770.44;5085421;28;20388;-77
2021/11/09 06:36:46;;;;;;;28.90;17.37;;;;;;;8.69;93.29;101774.72;5085595;28;20210;-76
2021/11/09 06:39:13;;;;;;;25.00;16.97;;;;;;;8.73;92.85;101785.19;5084389;28;20281;-76
2021/11/09 06:41:41;;;;;;;25.30;14.80;;;;;;;8.75;92.93;101785.19;5084914;28;20478;-76
2021/11/09 06:44:07;;;;;;;21.13;16.43;;;;;;;8.71;93.46;101770.41;5084860;28;20208;-76
2021/11/09 06:46:34;;;;;;;18.90;14.43;;;;;;;8.73;93.20;101779.97;5084670;28;20262;-76
2021/11/09 06:49:00;;;;;;;19.77;15.10;;;;;;;8.71;93.72;101780.81;5084479;28;20288;-76
2021/11/09 06:51:26;;;;;;;28.47;17.53;;;;;;;8.70;93.19;101781.66;5085089;28;20210;-77
2021/11/09 06:53:53;;;;;;;31.17;18.27;;;;;;;8.74;93.51;101786.94;5085004;28;20255;-77
2021/11/09 06:56:19;;;;;;;25.77;14.50;;;;;;;8.67;94.03;101774.69;5085787;28;20247;-77
2021/11/09 06:58:47;;;;;;;22.97;15.60;;;;;;;8.69;93.64;101782.53;5085385;28;20211;-76
2021/11/09 07:01:13;;;;;;;35.30;18.17;;;;;;;8.72;93.72;101793.84;5085110;28;20295;-77
2021/11/09 07:03:40;;;;;;;27.60;15.63;;;;;;;8.70;93.68;101792.97;5085522;28;20224;-76
2021/11/09 07:06:06;;;;;;;30.60;18.97;;;;;;;8.74;93.46;101802.56;5084994;28;20472;-77
2021/11/09 07:08:32;;;;;;;31.90;18.10;;;;;;;8.72;93.54;101819.88;5084874;28;20646;-77
2021/11/09 07:11:03;;;;;;;40.80;19.13;;;;;;;8.80;93.12;101819.06;5085126;28;20211;-77
2021/11/09 07:13:29;;;;;;;25.17;17.57;;;;;;;8.79;92.92;101833.84;5084492;28;20235;-77
2021/11/09 07:15:57;;;;;;;32.03;18.03;;;;;;;8.84;92.98;101832.16;5084770;28;20268;-76
2021/11/09 07:18:23;;;;;;;27.80;18.13;;;;;;;8.77;92.14;101863.31;5084429;28;20200;-77
2021/11/09 07:20:50;;;;;;;29.67;17.80;;;;;;;8.83;92.03;101861.66;5083459;28;20705;-76
2021/11/09 07:23:17;;;;;;;25.13;14.73;;;;;;;8.84;92.73;101854.72;5084431;28;20220;-76
2021/11/09 07:25:43;;;;;;;26.93;16.63;;;;;;;8.89;92.38;101840.88;5084726;28;20211;-76
2021/11/09 07:28:10;;;;;;;30.30;17.30;;;;;;;8.93;92.95;101847.88;5083345;28;20669;-76
2021/11/09 07:30:43;;;;;;;29.20;17.23;;;;;;;8.93;93.14;101844.41;5083533;28;20635;-76
2021/11/09 07:33:11;;;;;;;28.30;16.73;;;;;;;8.96;92.76;101844.44;5084053;28;20531;-76
2021/11/09 07:35:38;;;;;;;30.07;18.20;;;;;;;8.99;92.32;101874.84;5083823;28;20200;-76
2021/11/09 07:38:05;;;;;;;34.57;19.17;;;;;;;8.99;92.25;101882.66;5083168;28;20204;-76
2021/11/09 07:40:32;;;;;;;24.50;16.93;;;;;;;9.02;91.91;101894.00;5084091;28;20201;-76
2021/11/09 07:42:58;;;;;;;42.23;19.40;;;;;;;8.90;91.44;101915.56;5084153;28;20234;-77
2021/11/09 07:45:25;;;;;;;36.30;17.60;;;;;;;9.02;90.99;101920.03;5083805;28;20466;-76
2021/11/09 07:47:56;;;;;;;28.90;15.60;;;;;;;9.01;92.34;101886.16;5083455;28;20231;-76
2021/11/09 07:50:24;;;;;;;22.93;16.77;;;;;;;9.03;92.31;101893.13;5082818;28;20298;-76
2021/11/09 07:52:53;;;;;;;30.83;18.20;;;;;;;9.10;91.30;101910.56;5083693;28;20261;-77
2021/11/09 07:55:21;;;;;;;33.10;17.83;;;;;;;8.99;90.67;101948.63;5083727;28;20651;-78
2021/11/09 07:57:51;;;;;;;35.90;21.75;;;;;;;9.09;90.75;101950.47;5081245;28;20445;-76
2021/11/09 08:00:24;;;;;;;33.97;18.67;;;;;;;9.15;89.92;101970.53;5083367;28;20283;-77
2021/11/09 08:03:02;;;;;;;36.13;18.23;;;;;;;8.99;89.99;101989.44;5080713;28;20219;-77
2021/11/09 08:05:35;;;;;;;33.33;17.67;;;;;;;9.15;89.96;101979.22;5082401;28;20510;-76
2021/11/09 08:08:07;;;;;;;31.50;17.30;;;;;;;9.17;89.19;102002.69;5082494;28;20259;-77
2021/11/09 08:10:34;;;;;;;34.43;17.17;;;;;;;9.27;89.54;102006.28;5082232;28;20224;-77
2021/11/09 08:13:00;;;;;;;27.93;16.90;;;;;;;9.37;89.34;102007.25;5082547;28;20280;-78
2021/11/09 08:15:27;;;;;;;27.07;15.47;;;;;;;9.41;88.87;102015.13;5082290;28;20253;-77
2021/11/09 08:17:53;;;;;;;36.73;17.67;;;;;;;9.45;88.47;102023.84;5082819;28;20208;-77
2021/11/09 08:20:20;;;;;;;26.77;16.40;;;;;;;9.44;87.91;102064.69;5082175;28;20196;-76
2021/11/09 08:22:48;;;;;;;33.67;17.33;;;;;;;9.36;86.82;102079.34;5081794;28;20231;-77
2021/11/09 08:25:15;;;;;;;30.43;16.60;;;;;;;9.43;87.12;102081.16;5082203;28;20212;-76
2021/11/09 08:27:41;;;;;;;30.93;17.10;;;;;;;9.47;87.44;102075.13;5082279;28;20231;-77
2021/11/09 08:30:09;;;;;;;34.00;16.70;;;;;;;9.33;87.04;102082.78;5081801;28;20677;-76
2021/11/09 08:32:35;;;;;;;32.43;16.80;;;;;;;9.37;87.08;102093.25;5081398;28;20277;-76
2021/11/09 08:35:01;;;;;;;31.97;15.47;;;;;;;9.48;86.90;102091.66;5081983;28;20212;-77
2021/11/09 08:37:28;;;;;;;32.67;16.47;;;;;;;9.53;87.15;102096.09;5080275;28;20204;-77
2021/11/09 08:39:56;;;;;;;28.73;15.43;;;;;;;9.55;86.75;102106.50;5081317;28;20222;-77
2021/11/09 08:42:25;;;;;;;30.83;14.63;;;;;;;9.52;85.58;102149.06;5082083;28;20227;-77
2021/11/09 08:44:55;;;;;;;25.90;14.83;;;;;;;9.50;85.37;102160.34;5081997;28;20615;-77
2021/11/09 08:47:24;;;;;;;29.73;15.63;;;;;;;9.65;86.38;102130.97;5082991;28;20200;-77
2021/11/09 08:49:51;;;;;;;36.50;15.40;;;;;;;9.72;86.71;102120.63;5081974;28;20265;-77
2021/11/09 08:52:20;;;;;;;28.37;14.80;;;;;;;9.74;86.70;102111.09;5082640;28;20224;-77
2021/11/09 08:54:53;;;;;;;25.17;14.77;;;;;;;9.78;85.85;102130.25;5083127;28;20631;-78
2021/11/09 08:57:43;;;;;;;27.53;13.90;;;;;;;9.84;85.76;102142.50;5082029;28;20639;-77
2021/11/09 09:05:38;;;;;;;29.57;14.23;;;;;;;9.77;84.93;102171.97;5069791;28;20348;-78
2021/11/09 09:08:05;;;;;;;20.83;14.47;;;;;;;9.79;85.32;102155.50;5082424;28;20300;-76
2021/11/09 09:10:31;;;;;;;34.93;15.03;;;;;;;9.74;85.76;102142.38;5081784;28;21264;-76
2021/11/09 09:12:59;;;;;;;24.03;14.63;;;;;;;9.74;85.67;102139.78;5081828;28;20618;-76
2021/11/09 09:15:26;;;;;;;30.33;15.40;;;;;;;9.59;85.44;102150.00;5082669;28;20210;-78
2021/11/09 09:17:52;;;;;;;29.70;15.03;;;;;;;9.44;85.28;102163.72;5082047;28;20217;-77
2021/11/09 09:20:21;;;;;;;22.97;13.87;;;;;;;9.47;85.62;102153.34;5082437;28;20390;-77
2021/11/09 09:23:01;;;;;;;23.77;13.67;;;;;;;9.48;86.43;102122.94;5082058;28;20518;-76
2021/11/09 09:25:37;;;;;;;26.00;13.50;;;;;;;9.50;86.75;102114.28;5082607;28;20453;-77
2021/11/09 09:52:55;;;;;;;19.80;11.73;;;;;;;9.56;84.62;102196.91;5082174;28;20238;-76
2021/11/09 09:55:33;;;;;;;22.83;11.73;;;;;;;9.53;83.78;102218.63;5081959;28;20208;-77
2021/11/09 09:58:00;;;;;;;24.87;12.37;;;;;;;9.56;83.25;102235.16;5084210;28;20212;-77
2021/11/09 10:00:28;;;;;;;23.90;11.77;;;;;;;9.55;83.43;102231.63;5085818;28;20204;-76
2021/11/09 10:02:57;;;;;;;24.27;11.23;;;;;;;9.51;82.60;102248.09;5085183;28;20267;-77
2021/11/09 10:05:25;;;;;;;25.43;11.80;;;;;;;9.53;82.33;102255.09;5085458;28;20208;-77
2021/11/09 10:07:54;;;;;;;27.20;12.60;;;;;;;9.48;82.96;102241.13;5085117;28;20689;-76
2021/11/09 10:10:23;;;;;;;20.97;11.37;;;;;;;9.58;83.24;102226.47;5085347;28;20266;-77
2021/11/09 10:12:57;;;;;;;21.07;11.33;;;;;;;9.70;83.74;102211.00;5083304;28;20475;-76
2021/11/09 10:15:27;;;;;;;27.97;10.90;;;;;;;9.78;83.83;102195.47;5084330;28;20257;-77
2021/11/09 10:17:59;;;;;;;22.00;9.93;;;;;;;9.77;81.70;102250.19;5084997;28;20218;-76
2021/11/09 10:20:30;;;;;;;20.13;12.30;;;;;;;9.90;81.51;102289.50;5083977;28;20973;-77
2021/11/09 10:22:58;;;;;;;21.50;9.90;;;;;;;9.97;81.85;102282.66;5084360;28;20227;-77
2021/11/09 10:25:26;;;;;;;25.40;9.40;;;;;;;10.07;81.72;102270.63;5085017;28;20217;-76
2021/11/09 10:27:58;;;;;;;20.77;9.47;;;;;;;10.14;81.06;102288.09;5084949;28;20457;-77
2021/11/09 10:30:27;;;;;;;16.63;8.80;;;;;;;10.05;79.38;102346.25;5084998;28;20200;-77
2021/11/09 10:32:55;;;;;;;19.77;9.40;;;;;;;10.14;80.47;102338.53;5084605;28;20394;-77
2021/11/09 10:35:23;;;;;;;17.00;8.60;;;;;;;10.09;78.26;102365.44;5084829;28;20227;-77
2021/11/09 10:37:51;;;;;;;19.30;8.80;;;;;;;10.16;79.06;102364.66;5084266;28;20212;-77
2021/11/09 10:40:21;;;;;;;15.83;8.50;;;;;;;10.20;78.48;102395.16;5084605;28;20218;-77
2021/11/09 10:42:50;;;;;;;16.93;8.43;;;;;;;10.25;79.15;102377.84;5084236;28;20667;-76
2021/11/09 10:45:19;;;;;;;17.08;7.50;;;;;;;10.22;78.08;102390.84;5083642;28;20432;-77
2021/11/09 10:47:49;;;;;;;10.80;5.87;;;;;;;10.25;74.12;102518.78;5082959;28;20916;-77
2021/11/09 10:50:22;;;;;;;8.40;5.37;;;;;;;10.38;74.36;102517.25;5083929;28;20227;-78
2021/11/09 10:52:57;;;;;;;8.83;4.57;;;;;;;10.34;72.56;102578.97;5084237;28;20306;-77
2021/11/09 10:55:28;;;;;;;12.53;5.47;;;;;;;10.31;73.21;102586.78;5084207;28;20230;-77
2021/11/09 10:58:13;;;;;;;10.30;5.20;;;;;;;10.29;72.77;102587.59;5084009;28;20387;-77
2021/11/09 11:03:38;;;;;;;12.85;4.82;;;;;;;10.28;70.44;102604.97;5056320;28;20900;-77
2021/11/09 11:06:10;;;;;;;7.17;3.70;;;;;;;10.34;71.39;102638.16;5083881;28;20907;-76
2021/11/09 11:08:37;;;;;;;5.43;2.83;;;;;;;10.40;70.87;102626.94;5082776;28;20232;-76
2021/11/09 11:11:16;;;;;;;6.37;3.67;;;;;;;10.36;69.11;102685.19;5083754;28;20214;-76
2021/11/09 11:13:42;;;;;;;9.70;3.03;;;;;;;10.38;69.36;102700.00;5084274;28;20219;-77
2021/11/09 11:16:11;;;;;;;6.13;3.07;;;;;;;10.38;70.18;102647.81;5083996;28;20207;-77
2021/11/09 11:18:40;;;;;;;5.13;2.90;;;;;;;10.37;68.93;102669.56;5083281;28;20211;-77
2021/11/09 11:21:09;;;;;;;4.37;3.63;;;;;;;10.40;69.41;102680.03;5083649;28;20577;-76
2021/11/09 11:23:39;;;;;;;7.53;3.53;;;;;;;10.43;70.25;102653.13;5083082;28;20883;-75
2021/11/09 11:26:06;;;;;;;7.37;3.43;;;;;;;10.44;69.75;102663.56;5083687;28;20212;-76
2021/11/09 11:28:34;;;;;;;4.47;3.00;;;;;;;10.50;69.36;102671.53;5082918;28;20725;-77
2021/11/09 11:31:01;;;;;;;9.77;3.30;;;;;;;10.58;70.34;102632.47;5083730;28;20208;-76
2021/11/09 11:33:28;;;;;;;5.17;2.80;;;;;;;10.63;70.37;102616.91;5083187;28;20726;-76
2021/11/09 11:35:54;;;;;;;6.80;3.67;;;;;;;10.63;69.30;102654.31;5083392;28;20264;-77
2021/11/09 11:38:22;;;;;;;7.93;3.60;;;;;;;10.70;70.75;102616.13;5083260;28;20666;-76
2021/11/09 11:40:54;;;;;;;6.40;3.63;;;;;;;10.65;70.66;102612.56;5083347;28;20212;-77
2021/11/09 11:43:53;;;;;;;8.37;3.27;;;;;;;10.67;69.47;102645.69;5083180;28;20460;-77
2021/11/09 11:46:53;;;;;;;5.03;3.50;;;;;;;10.71;69.26;102652.72;5082907;28;20475;-77
2021/11/09 11:49:23;;;;;;;7.67;4.17;;;;;;;10.74;69.29;102644.03;5083338;28;20262;-77
2021/11/09 11:52:04;;;;;;;8.27;3.87;;;;;;;10.78;69.70;102637.13;5083638;28;20208;-77
2021/11/09 11:55:08;;;;;;;7.53;4.07;;;;;;;10.85;69.02;102649.44;5083601;28;20235;-77
2021/11/09 11:57:44;;;;;;;5.43;3.20;;;;;;;11.01;68.04;102669.72;5050374;28;20509;-78
2021/11/09 12:00:44;;;;;;;10.33;4.00;;;;;;;11.43;67.14;102697.34;5083161;28;20201;-77
2021/11/09 12:03:39;;;;;;;6.10;3.00;;;;;;;11.71;65.63;102758.78;5082517;28;20639;-77
2021/11/09 12:06:21;;;;;;;5.23;3.00;;;;;;;11.94;64.85;102789.66;5083316;28;20231;-77
2021/11/09 12:08:49;;;;;;;7.50;3.03;;;;;;;12.35;63.60;102815.47;5082239;28;20230;-77
2021/11/09 12:11:35;;;;;;;4.37;2.67;;;;;;;12.84;62.72;102839.63;5082260;28;20208;-77
2021/11/09 12:14:06;;;;;;;7.53;2.90;;;;;;;12.62;62.01;102892.63;5082736;28;20319;-76
2021/11/09 12:16:52;;;;;;;5.70;2.80;;;;;;;12.76;62.49;102854.34;5083733;28;20204;-76
2021/11/09 12:19:49;;;;;;;4.60;3.30;;;;;;;12.12;62.95;102852.72;5082017;28;20196;-77
2021/11/09 12:22:17;;;;;;;6.70;2.90;;;;;;;12.17;63.68;102813.50;5083455;28;20251;-78
2021/11/09 12:24:48;;;;;;;6.83;2.87;;;;;;;12.68;63.10;102785.25;5082653;28;20291;-78
2021/11/09 12:27:15;;;;;;;8.23;3.00;;;;;;;12.96;62.69;102810.00;5083091;28;20210;-78
2021/11/09 12:29:50;;;;;;;7.33;3.13;;;;;;;12.57;62.08;102832.31;5082685;28;20806;-77
2021/11/09 12:32:31;;;;;;;10.90;3.13;;;;;;;12.54;63.78;102789.47;5082674;28;20227;-78
2021/11/09 12:35:01;;;;;;;5.17;3.20;;;;;;;12.52;63.29;102776.38;5083147;28;20708;-77
2021/11/09 12:37:28;;;;;;;3.87;2.70;;;;;;;12.21;62.42;102794.38;5083197;28;20686;-77
2021/11/09 12:40:30;;;;;;;10.67;3.23;;;;;;;12.11;63.83;102774.16;5083022;28;20781;-78
2021/11/09 12:43:07;;;;;;;6.97;3.17;;;;;;;12.05;64.80;102698.16;5081613;28;20227;-77
2021/11/09 12:45:35;;;;;;;5.77;2.90;;;;;;;11.97;65.64;102681.47;5082620;28;21114;-77
2021/11/09 12:48:02;;;;;;;3.93;2.40;;;;;;;11.87;65.31;102690.94;5083423;28;20212;-76
2021/11/09 12:50:29;;;;;;;6.40;2.93;;;;;;;11.96;66.41;102643.09;5083816;28;20228;-78
2021/11/09 12:53:07;;;;;;;6.70;3.30;;;;;;;12.03;66.72;102614.38;5083580;28;20228;-77
2021/11/09 12:55:34;;;;;;;6.20;3.17;;;;;;;11.99;66.48;102611.72;5084735;28;20234;-77
2021/11/09 12:58:21;;;;;;;3.27;2.53;;;;;;;11.80;65.19;102627.19;5083683;28;20276;-77
2021/11/09 13:01:35;;;;;;;6.63;3.20;;;;;;;11.79;65.81;102635.00;5085285;28;20213;-78
2021/11/09 13:04:17;;;;;;;6.13;2.20;;;;;;;11.96;67.60;102575.06;5085054;28;20236;-77
2021/11/09 13:06:54;;;;;;;5.87;2.83;;;;;;;12.05;66.37;102588.22;5084174;28;20274;-77